Time;durP1;ratioP1;P1;durP2;ratioP2;P2;SDS_P1;SDS_P2;PMS_P1;PMS_P2;Temp;Humidity;BMP_temperature;BMP_pressure;BME280_temperature;BME280_humidity;BME280_pressure;Samples;Min_cycle;Max_cycle;Signal;HPM_P1;HPM_P2
2023/12/19 00:01:30;;;;;;;35.58;17.13;;;6.20;99.90;;;;;;5059118;28;20043;-70
2023/12/19 00:03:55;;;;;;;31.63;16.83;;;6.20;99.90;;;;;;5041687;28;20321;-71
2023/12/19 00:06:21;;;;;;;35.10;17.58;;;6.20;99.90;;;;;;5074994;28;20029;-72
2023/12/19 00:08:47;;;;;;;33.45;17.98;;;6.20;99.90;;;;;;5058486;28;20063;-71
2023/12/19 00:11:13;;;;;;;31.90;17.65;;;6.30;99.90;;;;;;5074905;28;20375;-71
2023/12/19 00:13:38;;;;;;;34.40;17.20;;;6.30;99.90;;;;;;5025161;28;20300;-71
2023/12/19 00:16:05;;;;;;;28.23;15.98;;;6.30;99.90;;;;;;5075022;28;20041;-70
2023/12/19 00:18:30;;;;;;;32.92;17.70;;;6.20;99.90;;;;;;5041616;28;20037;-68
2023/12/19 00:20:56;;;;;;;30.65;17.25;;;6.30;99.90;;;;;;5058059;28;20127;-71
2023/12/19 00:23:22;;;;;;;32.05;17.33;;;6.20;99.90;;;;;;5058619;28;20400;-72
2023/12/19 00:25:48;;;;;;;32.80;17.42;;;6.30;99.90;;;;;;5058173;28;20103;-71
2023/12/19 00:28:14;;;;;;;35.35;17.40;;;6.30;99.90;;;;;;5057852;28;20157;-71
2023/12/19 00:30:40;;;;;;;31.73;17.20;;;6.30;99.90;;;;;;5058962;28;20041;-72
2023/12/19 00:33:06;;;;;;;30.92;16.73;;;6.30;99.90;;;;;;5058293;28;20037;-72
2023/12/19 00:35:33;;;;;;;36.03;15.57;;;6.30;99.90;;;;;;5058691;28;20434;-72
2023/12/19 00:38:02;;;;;;;32.40;16.95;;;6.30;99.90;;;;;;5057941;28;20090;-71
2023/12/19 00:40:27;;;;;;;32.38;17.20;;;6.30;99.90;;;;;;5057895;28;20396;-72
2023/12/19 00:42:53;;;;;;;31.08;17.00;;;6.30;99.90;;;;;;5058118;28;20102;-72
2023/12/19 00:45:19;;;;;;;27.65;16.63;;;6.30;99.90;;;;;;5057414;28;20033;-73
2023/12/19 00:47:45;;;;;;;33.63;17.33;;;6.30;99.90;;;;;;5058453;28;20305;-72
2023/12/19 00:50:13;;;;;;;30.63;17.70;;;6.30;99.90;;;;;;5057448;28;20025;-72
2023/12/19 00:52:38;;;;;;;33.88;17.08;;;6.30;99.90;;;;;;5041472;28;20037;-72
2023/12/19 00:55:05;;;;;;;31.83;17.17;;;6.40;99.90;;;;;;5058299;28;20341;-72
2023/12/19 00:57:32;;;;;;;28.75;17.10;;;6.40;99.90;;;;;;5074096;28;20067;-73
2023/12/19 00:59:57;;;;;;;34.35;17.42;;;6.50;99.90;;;;;;5057738;28;20048;-72
2023/12/19 01:02:23;;;;;;;32.83;17.08;;;6.50;99.90;;;;;;5073925;28;20381;-71
2023/12/19 01:04:49;;;;;;;31.48;17.05;;;6.40;99.90;;;;;;5058226;28;20051;-72
2023/12/19 01:07:15;;;;;;;33.72;17.58;;;6.50;99.90;;;;;;5074138;28;20304;-72
2023/12/19 01:09:41;;;;;;;32.03;16.58;;;6.50;99.90;;;;;;5057245;28;20036;-69
2023/12/19 01:12:07;;;;;;;32.85;16.30;;;6.40;99.90;;;;;;5058315;28;20025;-73
2023/12/19 01:14:33;;;;;;;30.83;16.88;;;6.40;99.90;;;;;;5058317;28;20459;-73
2023/12/19 01:16:58;;;;;;;36.05;17.92;;;6.40;99.90;;;;;;5040641;28;20037;-72
2023/12/19 01:19:24;;;;;;;29.35;17.13;;;6.50;99.90;;;;;;5040522;28;20117;-71
2023/12/19 01:21:50;;;;;;;31.52;17.52;;;6.40;99.90;;;;;;5073557;28;20029;-72
2023/12/19 01:24:16;;;;;;;29.33;17.55;;;6.30;99.90;;;;;;5040147;28;20021;-71
2023/12/19 01:26:42;;;;;;;35.58;18.40;;;6.40;99.90;;;;;;5057821;28;20041;-71
2023/12/19 01:29:08;;;;;;;35.03;17.83;;;6.30;99.90;;;;;;5056745;28;20052;-71
2023/12/19 01:31:36;;;;;;;33.30;17.17;;;6.40;99.90;;;;;;5057502;28;20044;-70
2023/12/19 01:34:01;;;;;;;29.92;17.20;;;6.30;99.90;;;;;;5073257;28;20402;-70
2023/12/19 01:36:27;;;;;;;36.60;18.65;;;6.30;99.90;;;;;;5057322;28;20041;-70
2023/12/19 01:38:53;;;;;;;41.58;17.70;;;6.20;99.90;;;;;;5039833;28;20036;-70
2023/12/19 01:41:19;;;;;;;35.67;18.95;;;6.20;99.90;;;;;;5073219;28;20032;-72
2023/12/19 01:43:45;;;;;;;33.60;19.10;;;6.20;99.90;;;;;;5039935;28;20039;-71
2023/12/19 01:46:15;;;;;;;39.13;20.13;;;6.20;99.90;;;;;;5073047;28;20313;-70
2023/12/19 01:48:41;;;;;;;41.25;19.83;;;6.20;99.90;;;;;;5056536;28;20308;-70
2023/12/19 01:51:08;;;;;;;33.58;19.55;;;6.30;99.90;;;;;;5057131;28;20029;-71
2023/12/19 01:53:34;;;;;;;36.65;19.40;;;6.30;99.90;;;;;;5056432;28;20357;-72
2023/12/19 01:56:01;;;;;;;39.90;21.27;;;6.30;99.90;;;;;;5056727;28;20033;-70
2023/12/19 01:58:29;;;;;;;38.58;20.40;;;6.40;99.90;;;;;;5039568;28;20033;-72
2023/12/19 02:00:55;;;;;;;40.50;21.05;;;6.30;99.90;;;;;;5072990;28;20041;-70
2023/12/19 02:03:21;;;;;;;36.90;20.42;;;6.40;99.90;;;;;;5056689;28;20048;-71
2023/12/19 02:05:51;;;;;;;37.40;20.95;;;6.30;99.90;;;;;;5072734;28;20021;-70
2023/12/19 02:08:16;;;;;;;42.47;20.85;;;6.30;99.90;;;;;;5056718;28;20025;-71
2023/12/19 02:10:43;;;;;;;38.78;20.38;;;6.30;99.90;;;;;;5056045;28;20423;-70
2023/12/19 02:13:09;;;;;;;40.85;21.20;;;6.40;99.90;;;;;;5056803;28;20029;-70
2023/12/19 02:15:34;;;;;;;41.75;21.30;;;6.30;99.90;;;;;;5039332;28;20043;-71
2023/12/19 02:18:17;;;;;;;37.30;20.30;;;6.40;99.90;;;;;;5072510;28;20037;-69
2023/12/19 02:20:43;;;;;;;40.92;20.40;;;6.30;99.90;;;;;;5056735;28;20132;-70
2023/12/19 02:23:13;;;;;;;39.88;20.25;;;6.40;99.90;;;;;;5072527;28;20378;-71
2023/12/19 02:25:39;;;;;;;42.10;20.95;;;6.40;99.90;;;;;;5056619;28;20037;-70
2023/12/19 02:28:07;;;;;;;36.50;19.70;;;6.40;99.90;;;;;;5055808;28;20448;-69
2023/12/19 02:30:36;;;;;;;38.13;20.33;;;6.40;99.90;;;;;;5022761;28;20148;-70
2023/12/19 02:33:02;;;;;;;46.17;21.63;;;6.30;99.90;;;;;;5072470;28;20078;-70
2023/12/19 02:35:28;;;;;;;40.17;21.10;;;6.40;99.90;;;;;;5055810;28;20055;-70
2023/12/19 02:37:54;;;;;;;41.67;20.95;;;6.40;99.90;;;;;;5056509;28;20029;-70
2023/12/19 02:40:20;;;;;;;45.70;21.45;;;6.40;99.90;;;;;;5072423;28;20033;-67
2023/12/19 02:42:46;;;;;;;44.17;21.73;;;6.40;99.90;;;;;;5056046;28;20149;-70
2023/12/19 02:45:12;;;;;;;41.67;21.77;;;6.40;99.90;;;;;;5056486;28;20301;-71
2023/12/19 02:47:38;;;;;;;41.72;22.08;;;6.40;99.90;;;;;;5056542;28;20032;-72
2023/12/19 02:50:05;;;;;;;43.33;21.88;;;6.50;99.90;;;;;;5056536;28;20379;-70
2023/12/19 02:52:30;;;;;;;47.22;21.80;;;6.60;99.90;;;;;;5055563;28;20063;-71
2023/12/19 02:54:57;;;;;;;41.97;22.38;;;6.50;99.90;;;;;;5038948;28;20061;-70
2023/12/19 02:57:22;;;;;;;46.15;21.85;;;6.50;99.90;;;;;;5056790;28;20029;-70
2023/12/19 02:59:48;;;;;;;48.35;21.83;;;6.50;99.90;;;;;;5056324;28;20033;-70
2023/12/19 03:02:14;;;;;;;45.08;21.67;;;6.50;99.90;;;;;;5072304;28;20029;-72
2023/12/19 03:04:40;;;;;;;46.63;21.55;;;6.50;99.90;;;;;;5056257;28;20059;-71
2023/12/19 03:07:06;;;;;;;42.47;21.73;;;6.40;99.90;;;;;;5072129;28;20084;-72
2023/12/19 03:09:32;;;;;;;47.40;21.95;;;6.50;99.90;;;;;;5058450;28;20036;-70
2023/12/19 03:12:03;;;;;;;43.08;20.98;;;6.50;99.90;;;;;;5026307;28;20308;-71
2023/12/19 03:14:36;;;;;;;42.42;21.63;;;6.50;99.90;;;;;;5060038;28;20035;-72
2023/12/19 03:17:03;;;;;;;41.38;22.20;;;6.50;99.90;;;;;;5059228;28;20033;-72
2023/12/19 03:19:29;;;;;;;39.20;20.95;;;6.60;99.90;;;;;;5042556;28;20044;-69
2023/12/19 03:21:55;;;;;;;42.20;22.10;;;6.60;99.90;;;;;;5059806;28;20045;-70
2023/12/19 03:24:22;;;;;;;43.15;21.50;;;6.50;99.90;;;;;;5059694;28;20047;-70
2023/12/19 03:26:48;;;;;;;40.40;21.60;;;6.50;99.90;;;;;;5058979;28;20035;-71
2023/12/19 03:29:14;;;;;;;45.25;21.00;;;6.50;99.90;;;;;;5059538;28;20045;-70
2023/12/19 03:31:42;;;;;;;45.95;22.15;;;6.50;99.90;;;;;;5042594;28;20102;-71
2023/12/19 03:34:08;;;;;;;40.08;21.38;;;6.50;99.90;;;;;;5059583;28;20112;-71
2023/12/19 03:36:34;;;;;;;42.33;21.75;;;6.50;99.90;;;;;;5059799;28;20041;-71
2023/12/19 03:39:01;;;;;;;39.92;20.75;;;6.60;99.90;;;;;;5059318;28;20057;-70
2023/12/19 03:41:26;;;;;;;39.47;20.98;;;6.70;99.90;;;;;;5059653;28;20439;-70
2023/12/19 03:43:52;;;;;;;42.95;22.05;;;6.70;99.90;;;;;;5059398;28;20036;-72
2023/12/19 03:46:18;;;;;;;39.80;20.50;;;6.70;99.90;;;;;;5059508;28;20108;-71
2023/12/19 03:48:45;;;;;;;44.88;21.42;;;6.60;99.90;;;;;;5075263;28;20071;-71
2023/12/19 03:51:14;;;;;;;42.42;21.15;;;6.60;99.90;;;;;;5059415;28;20041;-69
2023/12/19 03:53:40;;;;;;;39.63;20.67;;;6.70;99.90;;;;;;5058603;28;20037;-71
2023/12/19 03:56:06;;;;;;;41.13;20.90;;;6.70;99.90;;;;;;5059135;28;20047;-71
2023/12/19 03:58:32;;;;;;;39.10;20.17;;;6.80;99.90;;;;;;5075111;28;20029;-69
2023/12/19 04:01:01;;;;;;;40.15;21.15;;;6.80;99.90;;;;;;5075095;28;20036;-70
2023/12/19 04:03:27;;;;;;;34.53;20.52;;;6.80;99.90;;;;;;5058995;28;20304;-71
2023/12/19 04:05:53;;;;;;;36.75;19.38;;;6.80;99.90;;;;;;5041619;28;20033;-70
2023/12/19 04:08:19;;;;;;;39.38;20.08;;;6.70;99.90;;;;;;5041644;28;20134;-71
2023/12/19 04:10:45;;;;;;;39.13;20.30;;;6.80;99.90;;;;;;5058971;28;20029;-70
2023/12/19 04:13:10;;;;;;;37.08;21.02;;;6.80;99.90;;;;;;5041596;28;20029;-71
2023/12/19 04:15:36;;;;;;;39.05;20.15;;;6.80;99.90;;;;;;5058894;28;20033;-71
2023/12/19 04:18:02;;;;;;;37.28;18.95;;;6.80;99.90;;;;;;5058745;28;20446;-71
2023/12/19 04:20:28;;;;;;;37.67;20.40;;;6.80;99.90;;;;;;5057683;28;20064;-71
2023/12/19 04:22:53;;;;;;;37.83;19.90;;;6.80;99.90;;;;;;5058033;28;20124;-71
2023/12/19 04:25:19;;;;;;;37.17;20.30;;;6.80;99.90;;;;;;5041346;28;20090;-71
2023/12/19 04:27:45;;;;;;;37.88;19.95;;;6.80;99.90;;;;;;5058605;28;20032;-69
2023/12/19 04:30:11;;;;;;;37.28;19.65;;;6.80;99.90;;;;;;5024474;28;20063;-68
2023/12/19 04:32:37;;;;;;;37.63;19.45;;;6.80;99.90;;;;;;5058526;28;20067;-69
2023/12/19 04:35:04;;;;;;;36.58;19.52;;;6.80;99.90;;;;;;5057460;28;20409;-71
2023/12/19 04:37:29;;;;;;;37.28;19.92;;;6.80;99.90;;;;;;5057811;28;20061;-71
2023/12/19 04:39:57;;;;;;;38.60;18.55;;;6.90;99.90;;;;;;5057660;28;20343;-70
2023/12/19 04:42:23;;;;;;;35.85;20.05;;;6.80;99.90;;;;;;5041081;28;20300;-72
2023/12/19 04:44:49;;;;;;;37.65;19.17;;;6.80;99.90;;;;;;5024591;28;20037;-71
2023/12/19 04:47:15;;;;;;;37.45;19.98;;;6.80;99.90;;;;;;5058267;28;20110;-70
2023/12/19 04:49:42;;;;;;;33.78;19.17;;;6.80;99.90;;;;;;5058511;28;20025;-69
2023/12/19 04:52:07;;;;;;;35.60;19.85;;;6.80;99.90;;;;;;5057478;28;20033;-70
2023/12/19 04:54:33;;;;;;;36.08;18.67;;;6.80;99.90;;;;;;5057561;28;20303;-71
2023/12/19 04:56:59;;;;;;;33.72;19.88;;;6.80;99.90;;;;;;5024279;28;20075;-68
2023/12/19 04:59:25;;;;;;;30.48;18.05;;;6.80;99.90;;;;;;5074636;28;20116;-69
2023/12/19 05:01:50;;;;;;;28.90;17.42;;;6.90;99.90;;;;;;5058230;28;20029;-69
2023/12/19 05:04:16;;;;;;;31.08;17.52;;;7.00;99.90;;;;;;5057920;28;20090;-70
2023/12/19 05:06:42;;;;;;;29.75;17.75;;;7.00;99.90;;;;;;5073878;28;20317;-71
2023/12/19 05:09:08;;;;;;;34.10;17.90;;;7.00;99.90;;;;;;5057982;28;20029;-72
2023/12/19 05:11:34;;;;;;;31.25;17.65;;;7.00;99.90;;;;;;5058351;28;20036;-71
2023/12/19 05:14:00;;;;;;;32.00;17.90;;;7.00;99.90;;;;;;5057698;28;20041;-70
2023/12/19 05:16:27;;;;;;;31.48;16.80;;;7.00;99.90;;;;;;5074170;28;20296;-70
2023/12/19 05:18:53;;;;;;;30.08;17.02;;;7.10;99.90;;;;;;5040240;28;20320;-71
2023/12/19 05:21:21;;;;;;;29.08;16.80;;;7.10;99.90;;;;;;5057014;28;20045;-71
2023/12/19 05:23:47;;;;;;;25.73;15.85;;;7.10;99.90;;;;;;5056878;28;20288;-72
2023/12/19 05:26:13;;;;;;;28.48;16.60;;;7.10;99.90;;;;;;5056760;28;20115;-71
2023/12/19 05:28:39;;;;;;;29.58;16.35;;;7.10;99.90;;;;;;5073243;28;20317;-72
2023/12/19 05:31:07;;;;;;;27.27;16.33;;;7.10;99.90;;;;;;5072967;28;20400;-70
2023/12/19 05:33:34;;;;;;;28.98;16.23;;;7.20;99.90;;;;;;5056709;28;20036;-70
2023/12/19 05:36:01;;;;;;;26.95;15.80;;;7.20;99.90;;;;;;5057492;28;20090;-69
2023/12/19 05:38:27;;;;;;;29.02;15.40;;;7.10;99.90;;;;;;5057377;28;20186;-69
2023/12/19 05:40:57;;;;;;;29.63;16.30;;;7.10;99.90;;;;;;5057276;28;20040;-71
2023/12/19 05:43:23;;;;;;;26.70;16.48;;;7.10;99.90;;;;;;5057198;28;20041;-73
2023/12/19 05:45:49;;;;;;;30.65;15.98;;;7.20;99.90;;;;;;5057452;28;20068;-66
2023/12/19 05:48:15;;;;;;;29.90;15.73;;;7.20;99.90;;;;;;5057255;28;20337;-70
2023/12/19 05:50:41;;;;;;;28.90;16.17;;;7.20;99.90;;;;;;5056490;28;20063;-69
2023/12/19 05:53:06;;;;;;;27.33;16.27;;;7.20;99.90;;;;;;5056436;28;20029;-71
2023/12/19 05:55:32;;;;;;;30.67;15.93;;;7.20;99.90;;;;;;5056551;28;20040;-69
2023/12/19 05:57:58;;;;;;;25.92;15.90;;;7.20;99.90;;;;;;5039835;28;20079;-71
2023/12/19 06:00:24;;;;;;;24.30;15.25;;;7.20;99.90;;;;;;5039576;28;20345;-71
2023/12/19 06:02:50;;;;;;;29.65;15.52;;;7.20;99.90;;;;;;5057072;28;20463;-69
2023/12/19 06:05:17;;;;;;;25.83;14.50;;;7.20;99.90;;;;;;5056625;28;20029;-69
2023/12/19 06:07:43;;;;;;;26.73;15.50;;;7.10;99.90;;;;;;5039746;28;20163;-70
2023/12/19 06:10:10;;;;;;;25.15;15.07;;;7.20;99.90;;;;;;5072780;28;20055;-69
2023/12/19 06:12:37;;;;;;;26.80;15.20;;;7.20;99.90;;;;;;5056002;28;20056;-67
2023/12/19 06:15:08;;;;;;;28.30;14.85;;;7.20;99.90;;;;;;5072682;28;20357;-71
2023/12/19 06:17:35;;;;;;;25.25;14.52;;;7.10;99.90;;;;;;5056743;28;20041;-71
2023/12/19 06:20:01;;;;;;;26.48;15.48;;;7.10;99.90;;;;;;5072558;28;20155;-71
2023/12/19 06:22:27;;;;;;;24.02;14.38;;;7.10;99.90;;;;;;5072704;28;20037;-70
2023/12/19 06:24:53;;;;;;;26.95;15.18;;;7.10;99.90;;;;;;5056499;28;20047;-69
2023/12/19 06:27:19;;;;;;;24.60;14.60;;;7.10;99.90;;;;;;5072330;28;20033;-70
2023/12/19 06:29:46;;;;;;;26.77;14.88;;;7.10;99.90;;;;;;5039072;28;20049;-71
2023/12/19 06:32:11;;;;;;;26.95;15.20;;;7.20;99.90;;;;;;5056694;28;20032;-71
2023/12/19 06:34:37;;;;;;;25.15;14.68;;;7.20;99.90;;;;;;5039410;28;20033;-71
2023/12/19 06:37:04;;;;;;;25.27;14.48;;;7.30;99.90;;;;;;5056699;28;20397;-71
2023/12/19 06:39:29;;;;;;;26.63;14.02;;;7.30;99.90;;;;;;5072597;28;20297;-71
2023/12/19 06:41:55;;;;;;;23.67;14.23;;;7.30;99.90;;;;;;5056479;28;20033;-71
2023/12/19 06:44:22;;;;;;;23.65;13.95;;;7.30;99.90;;;;;;5060271;28;20446;-72
2023/12/19 06:46:49;;;;;;;28.77;14.35;;;7.30;99.90;;;;;;5060713;28;20057;-71
2023/12/19 06:49:19;;;;;;;22.88;14.20;;;7.30;99.90;;;;;;5060458;28;20288;-71
2023/12/19 06:51:45;;;;;;;22.50;13.52;;;7.30;99.90;;;;;;5060433;28;20033;-71
2023/12/19 06:54:11;;;;;;;24.35;12.63;;;7.40;99.90;;;;;;5059704;28;20036;-71
2023/12/19 06:56:36;;;;;;;25.10;13.98;;;7.40;99.90;;;;;;5059659;28;20040;-70
2023/12/19 06:59:04;;;;;;;21.48;13.00;;;7.30;99.90;;;;;;5060278;28;20041;-71
2023/12/19 07:01:30;;;;;;;25.42;14.00;;;7.30;99.90;;;;;;5060312;28;20044;-71
2023/12/19 07:03:55;;;;;;;24.00;13.38;;;7.40;99.90;;;;;;5060121;28;20051;-70
2023/12/19 07:06:22;;;;;;;26.45;12.52;;;7.50;99.90;;;;;;5076218;28;20408;-70
2023/12/19 07:08:47;;;;;;;29.05;14.27;;;7.50;99.90;;;;;;5060081;28;20025;-71
2023/12/19 07:11:14;;;;;;;23.65;12.98;;;7.50;99.90;;;;;;5075878;28;20270;-70
2023/12/19 07:13:40;;;;;;;23.48;13.55;;;7.50;99.90;;;;;;5075882;28;20072;-71
2023/12/19 07:16:06;;;;;;;27.17;13.10;;;7.50;99.90;;;;;;5060028;28;20149;-71
2023/12/19 07:18:33;;;;;;;25.92;12.90;;;7.50;99.90;;;;;;5075812;28;20067;-69
2023/12/19 07:20:58;;;;;;;24.70;13.40;;;7.50;99.90;;;;;;5060224;28;20440;-70
2023/12/19 07:23:25;;;;;;;22.85;12.82;;;7.50;99.90;;;;;;5059747;28;20041;-71
2023/12/19 07:25:51;;;;;;;20.23;12.50;;;7.40;99.90;;;;;;5059860;28;20061;-62
2023/12/19 07:28:16;;;;;;;21.63;12.43;;;7.50;99.90;;;;;;5059421;28;20405;-71
2023/12/19 07:30:43;;;;;;;21.88;13.07;;;7.70;99.90;;;;;;5042532;28;20412;-70
2023/12/19 07:33:08;;;;;;;22.00;13.05;;;7.60;99.90;;;;;;5059622;28;20033;-68
2023/12/19 07:35:34;;;;;;;23.35;12.18;;;7.50;99.90;;;;;;5059525;28;20392;-61
2023/12/19 07:38:00;;;;;;;19.77;12.25;;;7.50;99.90;;;;;;5059331;28;20029;-70
2023/12/19 07:40:26;;;;;;;22.83;12.48;;;7.60;99.90;;;;;;5058899;28;20028;-72
2023/12/19 07:42:52;;;;;;;20.38;12.07;;;7.50;99.90;;;;;;5058650;28;20059;-72
2023/12/19 07:45:18;;;;;;;20.63;12.57;;;7.50;99.90;;;;;;5058665;28;20025;-70
2023/12/19 07:47:44;;;;;;;24.05;12.63;;;7.40;99.90;;;;;;5059372;28;20033;-70
2023/12/19 07:50:10;;;;;;;20.92;12.82;;;7.40;99.90;;;;;;5059282;28;20099;-71
2023/12/19 07:52:36;;;;;;;21.90;12.07;;;7.40;99.90;;;;;;5058682;28;20070;-71
2023/12/19 07:55:04;;;;;;;21.88;12.75;;;7.50;99.90;;;;;;5058528;28;20041;-71
2023/12/19 07:57:30;;;;;;;19.30;11.50;;;7.50;99.90;;;;;;5058379;28;20041;-71
2023/12/19 07:59:56;;;;;;;20.65;12.27;;;7.50;99.90;;;;;;5059196;28;20043;-72
2023/12/19 08:02:21;;;;;;;20.38;12.55;;;7.60;99.90;;;;;;5058446;28;20428;-67
2023/12/19 08:04:47;;;;;;;19.30;11.75;;;7.60;99.90;;;;;;5059296;28;20030;-72
2023/12/19 08:07:13;;;;;;;20.85;12.13;;;7.60;99.90;;;;;;5058269;28;20367;-73
2023/12/19 08:09:39;;;;;;;19.73;11.60;;;7.60;99.90;;;;;;5042160;28;20032;-71
2023/12/19 08:12:05;;;;;;;22.50;12.23;;;7.60;99.90;;;;;;5059286;28;20029;-73
2023/12/19 08:14:30;;;;;;;18.83;11.52;;;7.60;99.90;;;;;;5041393;28;20392;-68
2023/12/19 08:16:56;;;;;;;18.63;11.20;;;7.60;99.90;;;;;;5058010;28;20033;-72
2023/12/19 08:19:22;;;;;;;21.10;11.50;;;7.60;99.90;;;;;;5041543;28;20376;-71
2023/12/19 08:21:52;;;;;;;18.65;11.90;;;7.60;99.90;;;;;;5058819;28;20032;-71
2023/12/19 08:24:18;;;;;;;21.95;10.93;;;7.60;99.90;;;;;;5074399;28;20075;-73
2023/12/19 08:26:50;;;;;;;18.80;11.55;;;7.60;99.90;;;;;;5058753;28;20071;-72
2023/12/19 08:29:17;;;;;;;18.55;10.70;;;7.60;99.90;;;;;;5058435;28;20087;-72
2023/12/19 08:31:46;;;;;;;18.35;10.77;;;7.60;99.90;;;;;;5057891;28;20108;-72
2023/12/19 08:34:12;;;;;;;18.92;11.10;;;7.60;99.90;;;;;;5058404;28;20353;-72
2023/12/19 08:36:37;;;;;;;21.45;11.52;;;7.60;99.90;;;;;;5058304;28;20350;-69
2023/12/19 08:39:08;;;;;;;18.98;11.05;;;7.70;99.90;;;;;;5057506;28;20128;-71
2023/12/19 08:41:34;;;;;;;18.67;10.65;;;7.70;99.90;;;;;;5058547;28;20083;-72
2023/12/19 08:44:00;;;;;;;22.52;11.38;;;7.70;99.90;;;;;;5074151;28;20332;-70
2023/12/19 08:46:26;;;;;;;19.90;10.95;;;7.80;99.90;;;;;;5058409;28;20021;-72
2023/12/19 08:48:51;;;;;;;25.40;12.23;;;7.70;99.90;;;;;;5057526;28;20032;-72
2023/12/19 08:51:17;;;;;;;19.67;10.82;;;7.60;99.90;;;;;;5024499;28;20033;-71
2023/12/19 08:53:43;;;;;;;22.00;11.35;;;7.60;99.90;;;;;;5040971;28;20079;-71
2023/12/19 08:56:09;;;;;;;28.35;11.77;;;7.50;99.90;;;;;;5074101;28;20041;-70
2023/12/19 08:58:35;;;;;;;18.35;11.02;;;7.50;99.90;;;;;;5057975;28;20029;-72
2023/12/19 09:01:00;;;;;;;20.83;11.60;;;7.50;99.90;;;;;;5058075;28;20025;-72
2023/12/19 09:03:26;;;;;;;18.20;10.77;;;7.50;99.90;;;;;;5058157;28;20037;-69
2023/12/19 09:05:52;;;;;;;22.83;11.05;;;7.50;99.90;;;;;;5056669;28;20458;-69
2023/12/19 09:08:18;;;;;;;27.67;12.75;;;7.50;99.90;;;;;;5056786;28;20065;-71
2023/12/19 09:10:45;;;;;;;23.35;11.73;;;7.50;99.90;;;;;;5073690;28;20037;-71
2023/12/19 09:13:11;;;;;;;19.23;12.02;;;7.60;99.90;;;;;;5057857;28;20111;-70
2023/12/19 09:15:36;;;;;;;18.58;11.68;;;7.60;99.90;;;;;;5057678;28;20317;-70
2023/12/19 09:18:03;;;;;;;20.70;12.23;;;7.50;99.90;;;;;;5056795;28;20033;-70
2023/12/19 09:20:30;;;;;;;22.17;12.27;;;7.50;99.90;;;;;;5057658;28;20098;-69
2023/12/19 09:22:56;;;;;;;22.67;11.77;;;7.40;99.90;;;;;;5073378;28;20029;-70
2023/12/19 09:25:22;;;;;;;21.38;11.82;;;7.40;99.90;;;;;;5057596;28;20041;-69
2023/12/19 09:27:48;;;;;;;24.45;11.98;;;7.30;99.90;;;;;;5073479;28;20108;-69
2023/12/19 09:30:17;;;;;;;20.55;12.18;;;7.30;99.90;;;;;;5040118;28;20045;-70
2023/12/19 09:32:43;;;;;;;29.70;12.38;;;7.30;99.90;;;;;;5057444;28;20316;-69
2023/12/19 09:35:13;;;;;;;23.75;12.98;;;7.30;99.90;;;;;;5057399;28;20029;-69
2023/12/19 09:37:38;;;;;;;25.27;14.75;;;7.20;99.90;;;;;;5073306;28;20327;-69
2023/12/19 09:40:15;;;;;;;22.05;12.73;;;7.20;99.90;;;;;;5073166;28;20037;-67
2023/12/19 09:42:42;;;;;;;23.30;13.30;;;7.20;99.90;;;;;;5056609;28;20060;-70
2023/12/19 09:45:08;;;;;;;20.80;12.88;;;7.20;99.90;;;;;;5057183;28;20040;-68
2023/12/19 09:47:39;;;;;;;23.05;12.65;;;7.20;99.90;;;;;;5073115;28;20104;-70
2023/12/19 09:50:08;;;;;;;20.10;12.13;;;7.20;99.90;;;;;;5056528;28;20091;-67
2023/12/19 09:52:35;;;;;;;26.05;13.88;;;7.30;99.90;;;;;;5039961;28;20033;-70
2023/12/19 09:55:04;;;;;;;23.58;13.07;;;7.30;99.90;;;;;;5072998;28;20108;-68
2023/12/19 09:57:35;;;;;;;23.95;12.60;;;7.30;99.90;;;;;;5072708;28;20350;-70
2023/12/19 10:00:08;;;;;;;21.65;12.63;;;7.30;99.90;;;;;;5057185;28;20025;-69
2023/12/19 10:02:34;;;;;;;27.27;13.15;;;7.30;99.90;;;;;;5056263;28;20033;-69
2023/12/19 10:05:00;;;;;;;23.08;12.85;;;7.40;99.90;;;;;;5072653;28;20136;-69
2023/12/19 10:07:29;;;;;;;21.20;12.63;;;7.30;99.90;;;;;;5056840;28;20041;-69
2023/12/19 10:09:56;;;;;;;24.58;12.57;;;7.40;99.90;;;;;;5056829;28;20040;-69
2023/12/19 10:12:27;;;;;;;22.67;12.52;;;7.40;99.90;;;;;;5056744;28;20032;-69
2023/12/19 10:15:13;;;;;;;17.23;11.15;;;7.50;99.90;;;;;;5056846;28;20037;-68
2023/12/19 10:17:39;;;;;;;22.75;11.68;;;7.50;99.90;;;;;;5056504;28;20039;-68
2023/12/19 10:20:10;;;;;;;25.05;13.30;;;7.60;99.90;;;;;;5072573;28;20033;-68
2023/12/19 10:22:37;;;;;;;24.25;11.48;;;7.60;99.90;;;;;;5056843;28;20033;-67
2023/12/19 10:25:03;;;;;;;18.92;11.70;;;7.60;99.90;;;;;;5072587;28;20033;-65
2023/12/19 10:27:29;;;;;;;18.15;11.10;;;7.60;99.90;;;;;;5072504;28;20067;-68
2023/12/19 10:30:18;;;;;;;21.63;11.15;;;7.60;99.90;;;;;;5072289;28;20076;-68
2023/12/19 10:32:46;;;;;;;16.30;10.77;;;7.60;99.90;;;;;;5072205;28;20064;-65
2023/12/19 10:35:12;;;;;;;19.17;11.55;;;7.60;99.90;;;;;;5072350;28;20029;-68
2023/12/19 10:37:38;;;;;;;20.30;11.23;;;7.60;99.90;;;;;;5072406;28;20052;-68
2023/12/19 10:40:11;;;;;;;21.08;10.93;;;7.60;99.90;;;;;;5056524;28;20366;-67
2023/12/19 10:42:37;;;;;;;18.85;11.32;;;7.60;99.90;;;;;;5056834;28;20401;-66
2023/12/19 10:45:05;;;;;;;17.38;10.73;;;7.50;99.90;;;;;;5072141;28;20040;-64
2023/12/19 10:47:31;;;;;;;22.15;11.35;;;7.50;99.90;;;;;;5056326;28;20094;-67
2023/12/19 10:49:57;;;;;;;22.67;12.18;;;7.50;99.90;;;;;;5055737;28;20029;-66
2023/12/19 10:52:27;;;;;;;24.13;12.63;;;7.40;99.90;;;;;;5056321;28;20033;-61
2023/12/19 10:55:10;;;;;;;24.98;12.43;;;7.40;99.90;;;;;;5055563;28;20076;-63
2023/12/19 10:57:37;;;;;;;23.05;12.63;;;7.40;99.90;;;;;;5072349;28;20025;-60
2023/12/19 11:00:09;;;;;;;21.77;12.32;;;7.30;99.90;;;;;;5056202;28;20064;-61
2023/12/19 11:03:05;;;;;;;23.45;13.07;;;7.30;99.90;;;;;;5056163;28;20094;-60
2023/12/19 11:05:46;;;;;;;22.80;12.57;;;7.30;99.90;;;;;;5056455;28;20399;-60
2023/12/19 11:08:15;;;;;;;22.83;13.27;;;7.30;99.90;;;;;;5056664;28;20300;-60
2023/12/19 11:10:45;;;;;;;23.15;13.63;;;7.40;99.90;;;;;;5056220;28;20170;-62
2023/12/19 11:13:14;;;;;;;21.77;12.07;;;7.40;99.90;;;;;;5055534;28;20498;-60
2023/12/19 11:15:47;;;;;;;22.35;12.93;;;7.40;99.90;;;;;;5056247;28;20110;-61
2023/12/19 11:18:22;;;;;;;23.42;13.38;;;7.50;99.90;;;;;;5056082;28;20033;-64
2023/12/19 11:20:58;;;;;;;20.92;12.32;;;7.50;99.90;;;;;;5056106;28;20097;-62
2023/12/19 11:23:52;;;;;;;23.65;12.68;;;7.50;99.90;;;;;;5072233;28;20021;-61
2023/12/19 11:26:34;;;;;;;21.13;12.43;;;7.60;99.90;;;;;;5055755;28;20029;-61
2023/12/19 11:29:00;;;;;;;25.50;12.17;;;7.50;99.90;;;;;;5071440;28;20324;-63
2023/12/19 11:31:33;;;;;;;23.65;12.38;;;7.50;99.90;;;;;;5059052;28;20029;-60
2023/12/19 11:34:21;;;;;;;17.85;12.23;;;7.60;99.90;;;;;;5059307;28;20037;-61
2023/12/19 11:36:47;;;;;;;19.73;12.40;;;7.60;99.90;;;;;;5058823;28;20051;-60
2023/12/19 11:39:24;;;;;;;19.98;11.77;;;7.60;99.90;;;;;;5075286;28;20029;-62
2023/12/19 11:41:50;;;;;;;20.92;11.95;;;7.60;99.90;;;;;;5059582;28;20296;-61
2023/12/19 11:44:36;;;;;;;21.48;11.50;;;7.60;99.90;;;;;;5059167;28;20037;-61
2023/12/19 11:47:18;;;;;;;21.35;11.52;;;7.60;99.90;;;;;;5058807;28;20416;-63
2023/12/19 11:49:45;;;;;;;23.13;11.32;;;7.60;99.90;;;;;;5075549;28;20104;-62
2023/12/19 11:52:35;;;;;;;23.38;11.38;;;7.60;99.90;;;;;;5075339;28;20365;-63
2023/12/19 11:55:03;;;;;;;19.52;10.90;;;7.60;99.90;;;;;;5059381;28;20065;-62
2023/12/19 11:57:29;;;;;;;19.52;11.38;;;7.60;99.90;;;;;;5059434;28;20025;-66
2023/12/19 11:59:55;;;;;;;17.17;11.18;;;7.70;99.90;;;;;;5059375;28;20040;-61
2023/12/19 12:02:35;;;;;;;19.40;10.73;;;7.70;99.90;;;;;;5059240;28;20451;-63
2023/12/19 12:05:13;;;;;;;20.77;11.52;;;7.70;99.90;;;;;;5059070;28;20110;-62
2023/12/19 12:07:51;;;;;;;19.17;10.73;;;7.70;99.90;;;;;;5059053;28;20319;-62
2023/12/19 12:10:22;;;;;;;22.05;11.05;;;7.70;99.90;;;;;;5059075;28;20049;-63
2023/12/19 12:12:49;;;;;;;18.40;11.02;;;7.70;99.90;;;;;;5059119;28;20095;-60
2023/12/19 12:15:17;;;;;;;20.45;11.80;;;7.60;99.90;;;;;;5058354;28;20274;-60
2023/12/19 12:17:46;;;;;;;16.90;10.65;;;7.60;99.90;;;;;;5058280;28;20300;-60
2023/12/19 12:20:12;;;;;;;17.85;10.68;;;7.70;99.90;;;;;;5058927;28;20029;-59
2023/12/19 12:22:38;;;;;;;19.38;10.60;;;7.70;99.90;;;;;;5058894;28;20048;-59
2023/12/19 12:25:04;;;;;;;20.80;11.98;;;7.70;99.90;;;;;;5058758;28;20052;-59
2023/12/19 12:27:30;;;;;;;18.48;11.07;;;7.70;99.90;;;;;;5058299;28;20029;-59
2023/12/19 12:29:57;;;;;;;17.80;11.48;;;7.70;99.90;;;;;;5057941;28;20104;-59
2023/12/19 12:32:27;;;;;;;17.85;11.90;;;7.70;99.90;;;;;;5058620;28;20040;-59
2023/12/19 12:34:55;;;;;;;17.88;11.13;;;7.70;99.90;;;;;;5058654;28;20156;-60
2023/12/19 12:37:22;;;;;;;19.98;11.23;;;7.70;99.90;;;;;;5058630;28;20047;-60